Airfield :
LOGIN :

Register | Disclaimer

   EN    FR    IT 

 










Legend :    VFR   Marginal VFR   IFR   Intensive IFR   Very Intensive IFR
Visi :
Ceiling :
>= 8 km
>= 3000ft
5 to 8 km
1000 to 3000 ft
1500m to 5 km
500 to 1000 ft
800 to 1500m
200 to 500 ft
< 800m
< 200 ft
Symbols :   Thunderstorms  Fog  Heavy snow  Heavy precipitations  Wind > 20 kt
SIGMETs :     Misc.  Thunderstorms  Icing  Turbulence  Mountain Waves  Volcanic Ashes







- Airport Elevation : 3006 ft
- IATA code : LEN


LELN - Leon

CURRENT METAR :
  • 242130Z AUTO 12003KT 070V150 9999 FEW003 BKN008 BKN023 13/13 Q1018

EXPIRED METARs :
  • 242100Z AUTO 13004KT 9000 BKN005 BKN009 OVC013 13/13 Q1018
  • 242030Z AUTO 14004KT 110V180 9999 BKN006 OVC011 13/13 Q1018
  • 242000Z AUTO 12003KT 060V160 9999 BKN004 BKN010 OVC022 13/13 Q1017 RERA
  • 241930Z AUTO 14004KT 110V180 9999 +RA BKN002 OVC009 13/13 Q1017
  • 241900Z 07004KT 030V110 9999 RA BKN003 BKN015 13/13 Q1017

TAF AMD TAF LELN
Valid from the 24 at 18:00 until the 25 at 03:00 UTC


241834Z 2418/2503 VRB04KT 9999 SCT050 BKN055
TEMPO 2418/2421 RA BKN003 BKN010
No reported NOTAMs for that airfield.



MET'MAP, your aeronautical weather chart ! - Copyright ORBIFLY December 2007 - Disclaimer

ORBIFLY MET'MAP TEAM :

Programming & Development : Alexandra Zaïnal
Concept & Development : Baudouin d'Aumeries
Co-Development & Prog : Marc-Olivier Méhu
Technical & hardware support : Manuel Goepfert

Contact : metmap@orbifly.com




SOURCES & CREDITS :

   NOAA